Time;durP1;ratioP1;P1;durP2;ratioP2;P2;SDS_P1;SDS_P2;PMS_P1;PMS_P2;Temp;Humidity;BMP_temperature;BMP_pressure;BME280_temperature;BME280_humidity;BME280_pressure;Samples;Min_cycle;Max_cycle;Signal;HPM_P1;HPM_P2
2021/04/16 00:00:00;;;;;;;3.23;2.20;;;;;;;;;;5091524;28;20735;-71
2021/04/16 00:02:36;;;;;;;2.67;2.47;;;;;;;;;;5111758;27;20778;-70
2021/04/16 00:05:13;;;;;;;3.33;2.47;;;;;;;;;;5090827;27;20764;-70
2021/04/16 00:07:50;;;;;;;4.03;2.40;;;;;;;;;;5071371;28;20731;-70
2021/04/16 00:10:37;;;;;;;2.77;2.57;;;;;;;;;;5111940;27;20725;-70
2021/04/16 00:13:16;;;;;;;3.73;2.60;;;;;;;;;;5111904;27;20721;-70
2021/04/16 00:15:53;;;;;;;2.77;2.30;;;;;;;;;;5091547;27;20741;-71
2021/04/16 00:18:30;;;;;;;3.10;2.77;;;;;;;;;;5111427;27;20774;-71
2021/04/16 00:21:07;;;;;;;3.93;2.43;;;;;;;;;;5111949;27;20724;-71
2021/04/16 00:23:44;;;;;;;2.70;2.50;;;;;;;;;;5111667;27;21371;-70
2021/04/16 00:26:21;;;;;;;2.60;2.33;;;;;;;;;;5091439;27;20757;-70
2021/04/16 00:28:57;;;;;;;5.33;3.00;;;;;;;;;;5111882;27;20731;-70
2021/04/16 00:31:35;;;;;;;4.03;2.80;;;;;;;;;;5086759;28;20736;-70
2021/04/16 00:34:11;;;;;;;4.67;2.50;;;;;;;;;;5111176;27;20751;-70
2021/04/16 00:36:49;;;;;;;3.43;2.50;;;;;;;;;;5091580;27;20730;-70
2021/04/16 00:39:25;;;;;;;3.57;2.63;;;;;;;;;;5111927;27;20778;-70
2021/04/16 00:42:01;;;;;;;3.13;2.50;;;;;;;;;;5111460;27;21348;-71
2021/04/16 00:44:38;;;;;;;2.73;2.47;;;;;;;;;;5111415;27;21178;-70
2021/04/16 00:47:18;;;;;;;3.37;2.43;;;;;;;;;;5111844;27;20736;-70
2021/04/16 00:50:01;;;;;;;3.73;2.60;;;;;;;;;;5111915;27;20722;-70
2021/04/16 00:52:37;;;;;;;2.97;2.67;;;;;;;;;;5091571;27;21152;-70
2021/04/16 00:55:15;;;;;;;4.60;2.70;;;;;;;;;;5091711;27;20734;-71
2021/04/16 00:57:51;;;;;;;2.97;2.50;;;;;;;;;;5111917;27;21282;-70
2021/04/16 01:00:27;;;;;;;4.17;2.90;;;;;;;;;;5111917;27;21278;-70
2021/04/16 01:03:04;;;;;;;4.20;2.60;;;;;;;;;;5111546;27;20786;-71
2021/04/16 01:05:40;;;;;;;5.10;2.90;;;;;;;;;;5091472;27;20738;-70
2021/04/16 01:08:17;;;;;;;3.00;2.70;;;;;;;;;;5111898;27;21353;-70
2021/04/16 01:10:53;;;;;;;4.03;2.83;;;;;;;;;;5091560;27;20730;-70
2021/04/16 01:13:30;;;;;;;4.10;2.90;;;;;;;;;;5090990;27;20774;-70
2021/04/16 01:16:11;;;;;;;2.80;2.60;;;;;;;;;;5091565;27;20788;-70
2021/04/16 01:18:50;;;;;;;4.60;2.93;;;;;;;;;;5111385;27;20717;-70
2021/04/16 01:21:34;;;;;;;3.73;3.00;;;;;;;;;;5091591;28;20738;-70
2021/04/16 01:24:28;;;;;;;4.77;2.80;;;;;;;;;;5111897;27;20741;-70
2021/04/16 01:27:12;;;;;;;3.13;2.83;;;;;;;;;;5091400;27;21303;-70
2021/04/16 01:29:48;;;;;;;3.83;2.93;;;;;;;;;;5112002;27;20727;-70
2021/04/16 01:32:30;;;;;;;3.93;3.10;;;;;;;;;;5111831;27;21352;-70
2021/04/16 01:35:11;;;;;;;5.57;2.87;;;;;;;;;;5111956;27;20737;-70
2021/04/16 01:37:48;;;;;;;4.57;2.97;;;;;;;;;;5112024;27;20778;-70
2021/04/16 01:40:25;;;;;;;3.53;3.00;;;;;;;;;;5091485;27;20718;-70
2021/04/16 01:43:29;;;;;;;3.37;2.80;;;;;;;;;;5111390;27;20767;-71
2021/04/16 01:46:10;;;;;;;2.73;2.50;;;;;;;;;;5091555;27;20719;-70
2021/04/16 01:48:58;;;;;;;3.30;2.90;;;;;;;;;;5111316;27;20739;-70
2021/04/16 01:51:35;;;;;;;4.03;2.80;;;;;;;;;;5091616;27;20719;-70
2021/04/16 01:54:19;;;;;;;4.10;2.90;;;;;;;;;;5111517;27;20737;-71
2021/04/16 01:57:02;;;;;;;3.87;2.80;;;;;;;;;;5111945;27;20720;-70
2021/04/16 01:59:40;;;;;;;3.50;3.07;;;;;;;;;;5091610;27;20729;-70
2021/04/16 02:02:21;;;;;;;3.40;2.80;;;;;;;;;;5111860;27;20740;-71
2021/04/16 02:04:59;;;;;;;3.17;2.87;;;;;;;;;;5111274;27;20782;-70
2021/04/16 02:07:36;;;;;;;3.07;2.77;;;;;;;;;;5111877;27;20717;-70
2021/04/16 02:10:13;;;;;;;3.93;3.00;;;;;;;;;;5111912;27;21151;-70
2021/04/16 02:12:53;;;;;;;3.80;3.23;;;;;;;;;;5111497;27;20721;-70
2021/04/16 02:15:29;;;;;;;3.20;2.90;;;;;;;;;;5112112;27;21097;-71
2021/04/16 02:18:06;;;;;;;4.43;3.00;;;;;;;;;;5091233;28;20722;-70
2021/04/16 02:20:42;;;;;;;3.10;2.80;;;;;;;;;;5111890;27;20723;-70
2021/04/16 02:23:19;;;;;;;5.43;3.20;;;;;;;;;;5111749;27;21124;-70
2021/04/16 02:25:55;;;;;;;3.73;3.20;;;;;;;;;;5091561;27;20782;-70
2021/04/16 02:28:32;;;;;;;4.07;3.30;;;;;;;;;;5111133;27;20721;-70
2021/04/16 02:31:08;;;;;;;3.60;3.20;;;;;;;;;;5111897;27;21166;-70
2021/04/16 02:33:45;;;;;;;4.13;2.93;;;;;;;;;;5111257;27;20743;-70
2021/04/16 02:36:24;;;;;;;3.33;3.00;;;;;;;;;;5091541;28;20723;-70
2021/04/16 02:39:00;;;;;;;4.10;3.27;;;;;;;;;;5111904;27;20717;-70
2021/04/16 02:41:36;;;;;;;4.17;3.27;;;;;;;;;;5091475;27;21160;-71
2021/04/16 02:44:13;;;;;;;4.13;3.57;;;;;;;;;;5091455;27;20740;-70
2021/04/16 02:46:51;;;;;;;3.67;3.03;;;;;;;;;;5091536;28;20741;-70
2021/04/16 02:49:28;;;;;;;3.67;3.30;;;;;;;;;;5111878;27;20728;-71
2021/04/16 02:52:05;;;;;;;3.77;3.37;;;;;;;;;;5111881;27;21162;-71
2021/04/16 02:54:43;;;;;;;5.07;3.60;;;;;;;;;;5091422;27;21094;-70
2021/04/16 02:57:19;;;;;;;3.67;3.17;;;;;;;;;;5111765;27;20725;-70
2021/04/16 02:59:56;;;;;;;4.63;3.53;;;;;;;;;;5111913;27;20723;-70
2021/04/16 03:02:33;;;;;;;4.67;3.47;;;;;;;;;;5111775;27;21127;-71
2021/04/16 03:05:10;;;;;;;6.17;3.57;;;;;;;;;;5111841;27;20745;-70
2021/04/16 03:07:46;;;;;;;5.13;3.67;;;;;;;;;;5091549;27;20714;-70
2021/04/16 03:10:30;;;;;;;5.80;3.70;;;;;;;;;;5111890;27;21146;-70
2021/04/16 03:13:07;;;;;;;4.10;3.50;;;;;;;;;;5091165;28;20729;-70
2021/04/16 03:15:45;;;;;;;5.47;4.27;;;;;;;;;;5111150;27;20741;-70
2021/04/16 03:18:28;;;;;;;6.73;3.60;;;;;;;;;;4952801;27;5452602;-70
2021/04/16 03:21:23;;;;;;;5.03;3.60;;;;;;;;;;4861898;28;5337890;-70
2021/04/16 03:24:10;;;;;;;5.17;4.27;;;;;;;;;;4889031;27;5457506;-70
2021/04/16 03:26:47;;;;;;;7.43;4.53;;;;;;;;;;5110794;27;20737;-71
2021/04/16 03:29:23;;;;;;;5.17;4.10;;;;;;;;;;5090564;28;21320;-70
2021/04/16 03:32:00;;;;;;;4.33;3.63;;;;;;;;;;5111599;27;20788;-70
2021/04/16 03:34:37;;;;;;;5.07;4.07;;;;;;;;;;5079738;27;20754;-71
2021/04/16 03:37:13;;;;;;;6.70;3.83;;;;;;;;;;5093403;22;20807;-75
2021/04/16 03:39:50;;;;;;;4.87;4.03;;;;;;;;;;5091228;27;20907;-75
2021/04/16 03:42:26;;;;;;;4.80;3.67;;;;;;;;;;5091582;28;21094;-75
2021/04/16 03:45:04;;;;;;;4.17;3.77;;;;;;;;;;5061446;27;20749;-74
2021/04/16 03:47:43;;;;;;;4.67;3.80;;;;;;;;;;5111796;27;20746;-74
2021/04/16 03:50:29;;;;;;;5.43;3.97;;;;;;;;;;5072258;28;20829;-75
2021/04/16 03:53:07;;;;;;;4.67;3.87;;;;;;;;;;5110055;27;20802;-75
2021/04/16 03:55:44;;;;;;;5.07;3.87;;;;;;;;;;5091536;27;20776;-75
2021/04/16 03:58:22;;;;;;;4.63;3.97;;;;;;;;;;5090959;27;20795;-75
2021/04/16 04:00:59;;;;;;;6.90;4.47;;;;;;;;;;5091579;28;20780;-75
2021/04/16 04:03:36;;;;;;;4.90;4.40;;;;;;;;;;5090951;27;20784;-75
2021/04/16 04:06:12;;;;;;;4.63;3.87;;;;;;;;;;5111096;27;20774;-75
2021/04/16 04:08:49;;;;;;;5.17;4.00;;;;;;;;;;5132484;27;20737;-75
2021/04/16 04:11:25;;;;;;;5.10;4.17;;;;;;;;;;5091540;27;21345;-75
2021/04/16 04:14:03;;;;;;;5.13;4.13;;;;;;;;;;5111163;27;20790;-76
2021/04/16 04:16:55;;;;;;;4.67;3.90;;;;;;;;;;5111938;27;20770;-76
2021/04/16 04:19:33;;;;;;;4.63;4.20;;;;;;;;;;5091469;28;20803;-76
2021/04/16 04:22:09;;;;;;;5.53;4.30;;;;;;;;;;5091551;28;21155;-75
2021/04/16 04:24:46;;;;;;;6.33;4.23;;;;;;;;;;5090994;27;20788;-75
2021/04/16 04:27:22;;;;;;;5.70;4.47;;;;;;;;;;5111182;27;20774;-75
2021/04/16 04:29:59;;;;;;;8.03;4.90;;;;;;;;;;5111884;27;20791;-75
2021/04/16 04:32:36;;;;;;;6.40;4.20;;;;;;;;;;5091379;28;20792;-75
2021/04/16 04:35:13;;;;;;;5.10;4.60;;;;;;;;;;5111821;27;20782;-75
2021/04/16 04:37:50;;;;;;;5.03;4.27;;;;;;;;;;5091516;27;20718;-75
2021/04/16 04:40:27;;;;;;;5.60;3.73;;;;;;;;;;5106584;22;20821;-75
2021/04/16 04:43:04;;;;;;;5.97;4.23;;;;;;;;;;5111099;27;20727;-76
2021/04/16 04:45:40;;;;;;;4.97;4.47;;;;;;;;;;5111290;27;20786;-75
2021/04/16 04:48:17;;;;;;;6.20;5.33;;;;;;;;;;5123950;27;20772;-74
2021/04/16 04:50:53;;;;;;;6.43;5.03;;;;;;;;;;5091471;28;20796;-75
2021/04/16 04:53:31;;;;;;;7.50;4.90;;;;;;;;;;5080475;22;20849;-75
2021/04/16 04:56:08;;;;;;;5.40;4.50;;;;;;;;;;5090359;28;20800;-76
2021/04/16 04:58:45;;;;;;;7.57;4.50;;;;;;;;;;5099017;27;20810;-75
2021/04/16 05:01:22;;;;;;;5.20;4.63;;;;;;;;;;5067163;27;20788;-75
2021/04/16 05:03:59;;;;;;;6.43;4.80;;;;;;;;;;5111190;27;20790;-75
2021/04/16 05:06:35;;;;;;;6.07;4.60;;;;;;;;;;5091520;28;20792;-76
2021/04/16 05:09:11;;;;;;;5.40;4.50;;;;;;;;;;5112009;27;20778;-76
2021/04/16 05:11:48;;;;;;;5.70;4.33;;;;;;;;;;5111894;27;20786;-75
2021/04/16 05:14:25;;;;;;;5.87;4.77;;;;;;;;;;5091281;27;20753;-75
2021/04/16 05:17:01;;;;;;;5.00;4.50;;;;;;;;;;5111588;27;20716;-75
2021/04/16 05:19:38;;;;;;;5.90;4.53;;;;;;;;;;5111852;27;20778;-75
2021/04/16 05:22:15;;;;;;;5.47;4.43;;;;;;;;;;5111834;27;20774;-75
2021/04/16 05:24:51;;;;;;;8.73;4.47;;;;;;;;;;5111840;27;20782;-75
2021/04/16 05:27:29;;;;;;;6.60;4.97;;;;;;;;;;5111973;27;20794;-75
2021/04/16 05:30:07;;;;;;;6.43;4.10;;;;;;;;;;5067928;27;20769;-75
2021/04/16 05:32:45;;;;;;;14.00;5.27;;;;;;;;;;5091389;27;20780;-76
2021/04/16 05:35:23;;;;;;;9.30;5.63;;;;;;;;;;5091591;27;20784;-75
2021/04/16 05:37:59;;;;;;;8.70;5.50;;;;;;;;;;5111322;27;20794;-75
2021/04/16 05:40:35;;;;;;;9.43;6.10;;;;;;;;;;5067951;27;20734;-75
2021/04/16 05:43:12;;;;;;;9.23;5.40;;;;;;;;;;5090970;27;21303;-75
2021/04/16 05:45:49;;;;;;;8.83;5.77;;;;;;;;;;5071456;28;20747;-75
2021/04/16 05:48:25;;;;;;;11.63;6.53;;;;;;;;;;5065444;28;20765;-75
2021/04/16 05:51:02;;;;;;;11.27;6.03;;;;;;;;;;5111958;27;20818;-75
2021/04/16 05:53:38;;;;;;;7.37;5.57;;;;;;;;;;5111816;27;20821;-75
2021/04/16 05:56:15;;;;;;;7.83;5.97;;;;;;;;;;5071370;28;20720;-75
2021/04/16 05:58:52;;;;;;;12.07;5.80;;;;;;;;;;5091742;27;20786;-75
2021/04/16 06:01:28;;;;;;;6.00;4.37;;;;;;;;;;5112230;27;20744;-75
2021/04/16 06:04:05;;;;;;;6.10;4.40;;;;;;;;;;5070788;28;21109;-75
2021/04/16 06:06:41;;;;;;;7.67;4.83;;;;;;;;;;5069438;28;20813;-75
2021/04/16 06:09:18;;;;;;;13.13;5.17;;;;;;;;;;5092874;27;20792;-75
2021/04/16 06:11:55;;;;;;;5.63;4.80;;;;;;;;;;5111595;27;20727;-75
2021/04/16 06:14:31;;;;;;;6.17;4.60;;;;;;;;;;5089765;27;21402;-75
2021/04/16 06:17:13;;;;;;;6.07;4.90;;;;;;;;;;5152856;27;20722;-75
2021/04/16 06:19:50;;;;;;;8.47;6.67;;;;;;;;;;5111915;27;21174;-75
2021/04/16 06:22:27;;;;;;;7.53;6.20;;;;;;;;;;5091572;27;20791;-75
2021/04/16 06:25:05;;;;;;;8.27;5.80;;;;;;;;;;5111257;27;20790;-75
2021/04/16 06:27:42;;;;;;;18.80;16.90;;;;;;;;;;5111564;27;20735;-75
2021/04/16 06:30:19;;;;;;;15.00;9.83;;;;;;;;;;5112017;27;20806;-75
2021/04/16 06:32:59;;;;;;;8.10;6.17;;;;;;;;;;5071164;28;20805;-74
2021/04/16 06:36:06;;;;;;;6.33;5.23;;;;;;;;;;5050974;28;20609;-74
2021/04/16 06:39:10;;;;;;;7.03;4.70;;;;;;;;;;5050234;28;21073;-75
2021/04/16 06:42:29;;;;;;;6.83;5.43;;;;;;;;;;5050867;28;20547;-75
2021/04/16 06:45:34;;;;;;;7.97;5.10;;;;;;;;;;5050336;28;20615;-75
2021/04/16 06:48:39;;;;;;;7.57;5.97;;;;;;;;;;5050841;28;20555;-75
2021/04/16 06:52:11;;;;;;;6.83;5.60;;;;;;;;;;5050679;28;20583;-76
2021/04/16 06:55:25;;;;;;;8.83;5.43;;;;;;;;;;5049565;28;20625;-75
2021/04/16 06:58:54;;;;;;;7.50;5.37;;;;;;;;;;5050228;28;20567;-75
2021/04/16 07:02:04;;;;;;;7.37;5.60;;;;;;;;;;5056096;28;20535;-75
2021/04/16 07:05:37;;;;;;;7.27;5.30;;;;;;;;;;5050092;28;20626;-75
2021/04/16 07:08:50;;;;;;;37.57;9.07;;;;;;;;;;5050376;28;20547;-75
2021/04/16 07:12:03;;;;;;;9.40;5.43;;;;;;;;;;5049851;28;20634;-74
2021/04/16 07:15:10;;;;;;;39.27;6.70;;;;;;;;;;5050130;28;20638;-75
2021/04/16 07:18:21;;;;;;;8.50;5.20;;;;;;;;;;5049850;28;20551;-73
2021/04/16 07:21:25;;;;;;;32.67;6.90;;;;;;;;;;5049966;28;20544;-74
2021/04/16 07:24:31;;;;;;;6.00;5.13;;;;;;;;;;5049638;28;20622;-73
2021/04/16 07:27:44;;;;;;;61.87;9.37;;;;;;;;;;5049025;28;20555;-75
2021/04/16 07:30:50;;;;;;;9.37;5.57;;;;;;;;;;5039323;28;20618;-74
2021/04/16 07:33:56;;;;;;;6.57;5.27;;;;;;;;;;5029564;28;20635;-74
2021/04/16 07:37:12;;;;;;;8.97;5.93;;;;;;;;;;5029769;28;20571;-73
2021/04/16 07:40:39;;;;;;;20.87;6.77;;;;;;;;;;5030211;28;20549;-74
2021/04/16 07:43:49;;;;;;;7.70;6.33;;;;;;;;;;5019745;28;20627;-74
2021/04/16 07:46:57;;;;;;;8.17;6.03;;;;;;;;;;5016968;28;20561;-74
2021/04/16 07:50:09;;;;;;;9.20;6.43;;;;;;;;;;5016422;28;20541;-74
2021/04/16 07:53:44;;;;;;;7.67;6.57;;;;;;;;;;5016003;28;20631;-74
2021/04/16 07:57:05;;;;;;;6.97;5.70;;;;;;;;;;5016195;28;20557;-75
2021/04/16 08:00:25;;;;;;;9.30;6.40;;;;;;;;;;5015843;28;21083;-75
2021/04/16 08:03:42;;;;;;;7.63;5.93;;;;;;;;;;5026630;28;20935;-75
2021/04/16 08:06:48;;;;;;;9.67;5.60;;;;;;;;;;5016046;28;20553;-75
2021/04/16 08:09:53;;;;;;;9.00;6.23;;;;;;;;;;5026574;28;20189;-75
2021/04/16 08:13:25;;;;;;;7.20;5.70;;;;;;;;;;5015700;28;20209;-74
2021/04/16 08:16:39;;;;;;;7.33;6.03;;;;;;;;;;5015914;28;20186;-74
2021/04/16 08:19:44;;;;;;;8.33;6.00;;;;;;;;;;5015885;28;20190;-74
2021/04/16 08:22:48;;;;;;;8.20;5.73;;;;;;;;;;5015807;28;20178;-74
2021/04/16 08:25:56;;;;;;;6.67;5.77;;;;;;;;;;5026533;28;20675;-74
2021/04/16 08:29:07;;;;;;;9.13;6.77;;;;;;;;;;5035348;28;20652;-74
2021/04/16 08:32:35;;;;;;;7.50;5.83;;;;;;;;;;5035270;28;20228;-74
2021/04/16 08:35:56;;;;;;;7.07;5.73;;;;;;;;;;5037513;28;20225;-74
2021/04/16 08:39:22;;;;;;;7.57;5.77;;;;;;;;;;5015870;28;20581;-74
2021/04/16 08:42:31;;;;;;;9.23;5.80;;;;;;;;;;5026035;28;20182;-74
2021/04/16 08:45:39;;;;;;;6.80;6.10;;;;;;;;;;5015213;28;20222;-74
2021/04/16 08:48:52;;;;;;;7.30;6.17;;;;;;;;;;5012394;28;20189;-74
2021/04/16 08:52:02;;;;;;;6.87;5.73;;;;;;;;;;5011217;28;20210;-75
2021/04/16 08:55:39;;;;;;;6.07;5.47;;;;;;;;;;5010014;28;20217;-75
2021/04/16 08:58:44;;;;;;;6.07;5.20;;;;;;;;;;5010389;28;20182;-75
2021/04/16 09:02:16;;;;;;;7.23;5.90;;;;;;;;;;5010889;28;20177;-75
2021/04/16 09:05:22;;;;;;;6.97;5.67;;;;;;;;;;5010982;28;20221;-75
2021/04/16 09:08:36;;;;;;;6.13;5.50;;;;;;;;;;5010907;28;20640;-75
2021/04/16 09:11:43;;;;;;;8.10;5.80;;;;;;;;;;5010700;28;20205;-75
2021/04/16 09:14:51;;;;;;;11.43;7.60;;;;;;;;;;5010798;28;20666;-75
2021/04/16 09:17:58;;;;;;;9.00;6.30;;;;;;;;;;5010125;28;20174;-75
2021/04/16 09:21:03;;;;;;;6.43;5.77;;;;;;;;;;5010829;28;20529;-75
2021/04/16 09:24:10;;;;;;;7.27;5.80;;;;;;;;;;5010175;28;20209;-74
2021/04/16 09:27:41;;;;;;;7.23;6.50;;;;;;;;;;5010478;28;20182;-75
2021/04/16 09:30:45;;;;;;;5.00;4.33;;;;;;;;;;5010422;28;20644;-75
2021/04/16 09:34:08;;;;;;;7.13;5.30;;;;;;;;;;5010389;28;20217;-75
2021/04/16 09:37:26;;;;;;;7.27;5.20;;;;;;;;;;5009995;28;20185;-74
2021/04/16 09:40:33;;;;;;;5.90;5.30;;;;;;;;;;5010359;28;20186;-75
2021/04/16 09:43:38;;;;;;;7.60;4.97;;;;;;;;;;5010169;28;20221;-75
2021/04/16 09:46:47;;;;;;;7.23;4.57;;;;;;;;;;5010087;28;20181;-75
2021/04/16 09:49:58;;;;;;;28.43;5.50;;;;;;;;;;5018118;28;20668;-75
2021/04/16 09:53:19;;;;;;;6.10;4.70;;;;;;;;;;5029799;28;20204;-75
2021/04/16 09:56:23;;;;;;;4.93;4.33;;;;;;;;;;5029784;28;20181;-75
2021/04/16 09:59:33;;;;;;;4.83;3.90;;;;;;;;;;5029881;28;20606;-75
2021/04/16 10:02:38;;;;;;;6.13;4.30;;;;;;;;;;5029626;28;20640;-75
2021/04/16 10:05:42;;;;;;;4.20;3.80;;;;;;;;;;5029323;28;20591;-75
2021/04/16 10:08:46;;;;;;;4.10;3.70;;;;;;;;;;5029657;28;20177;-75
2021/04/16 10:12:10;;;;;;;4.50;3.73;;;;;;;;;;5029663;28;20181;-75
2021/04/16 10:15:18;;;;;;;11.23;5.97;;;;;;;;;;5029323;28;20228;-75
2021/04/16 10:18:23;;;;;;;3.67;3.07;;;;;;;;;;5029392;28;20185;-75
2021/04/16 10:21:29;;;;;;;4.10;3.40;;;;;;;;;;5028631;28;20177;-75
2021/04/16 10:29:00;;;;;;;29.03;5.77;;;;;;;;;;5029355;28;20483;-75
2021/04/16 11:17:39;;;;;;;6.63;5.93;;;;;;;;;;5028640;28;20542;-75
2021/04/16 12:40:30;;;;;;;5.43;4.90;;;;;;;;;;5067414;28;20735;-75
2021/04/16 12:43:06;;;;;;;6.67;5.30;;;;;;;;;;5107887;27;21182;-75
2021/04/16 12:45:43;;;;;;;5.17;4.63;;;;;;;;;;5108041;27;20791;-75
2021/04/16 12:48:20;;;;;;;6.87;4.90;;;;;;;;;;5067150;28;20785;-76
2021/04/16 12:50:56;;;;;;;8.80;5.00;;;;;;;;;;5107824;27;20790;-74
2021/04/16 12:53:33;;;;;;;19.03;5.90;;;;;;;;;;5107887;27;20775;-75
2021/04/16 12:56:15;;;;;;;7.57;5.47;;;;;;;;;;5087918;27;20799;-74
2021/04/16 12:58:51;;;;;;;7.17;5.73;;;;;;;;;;5067370;28;20746;-74
2021/04/16 13:01:30;;;;;;;9.53;5.57;;;;;;;;;;5107570;27;20786;-75
2021/04/16 13:04:06;;;;;;;7.53;5.70;;;;;;;;;;5087391;27;20760;-75
2021/04/16 13:06:44;;;;;;;18.23;5.73;;;;;;;;;;5067280;28;20786;-75
2021/04/16 13:09:20;;;;;;;6.23;5.17;;;;;;;;;;5087654;27;21735;-75
2021/04/16 13:11:57;;;;;;;5.87;5.27;;;;;;;;;;5107895;27;20802;-75
2021/04/16 13:14:33;;;;;;;8.13;5.03;;;;;;;;;;5087082;27;20742;-75
2021/04/16 13:17:17;;;;;;;8.03;4.90;;;;;;;;;;5087291;27;20771;-74
2021/04/16 13:19:56;;;;;;;5.57;4.93;;;;;;;;;;5107685;27;20724;-74
2021/04/16 13:22:33;;;;;;;73.43;8.83;;;;;;;;;;5107895;27;20775;-75
2021/04/16 13:25:11;;;;;;;5.67;5.13;;;;;;;;;;5086943;27;21400;-74
2021/04/16 13:27:50;;;;;;;6.83;4.93;;;;;;;;;;5087350;28;20784;-75
2021/04/16 13:30:29;;;;;;;7.87;5.50;;;;;;;;;;5087486;27;20722;-75
2021/04/16 13:33:16;;;;;;;6.90;5.10;;;;;;;;;;5107837;27;20764;-75
2021/04/16 13:35:54;;;;;;;5.20;4.60;;;;;;;;;;5107709;27;21375;-75
2021/04/16 13:38:32;;;;;;;6.60;6.00;;;;;;;;;;5086981;27;21393;-75
2021/04/16 13:41:09;;;;;;;8.33;5.30;;;;;;;;;;5087573;27;20741;-75
2021/04/16 13:43:49;;;;;;;10.07;5.20;;;;;;;;;;5067147;28;20774;-75
2021/04/16 13:46:30;;;;;;;5.03;4.53;;;;;;;;;;5087575;28;21130;-75
2021/04/16 13:49:10;;;;;;;5.53;4.67;;;;;;;;;;5107490;27;20731;-75
2021/04/16 13:51:46;;;;;;;5.70;5.10;;;;;;;;;;5087522;27;20753;-75
2021/04/16 13:54:23;;;;;;;6.57;4.83;;;;;;;;;;5107746;27;20786;-75
2021/04/16 13:56:59;;;;;;;6.13;4.83;;;;;;;;;;5087454;27;21317;-75
2021/04/16 13:59:36;;;;;;;5.10;4.60;;;;;;;;;;5107702;27;20794;-77
2021/04/16 14:02:18;;;;;;;5.47;4.50;;;;;;;;;;5107607;27;20771;-75
2021/04/16 14:04:54;;;;;;;10.50;4.80;;;;;;;;;;5149079;27;20748;-75
2021/04/16 14:07:31;;;;;;;4.70;4.20;;;;;;;;;;5107922;27;21357;-75
2021/04/16 14:10:35;;;;;;;6.53;5.00;;;;;;;;;;5107972;28;20181;-74
2021/04/16 14:13:39;;;;;;;5.10;4.50;;;;;;;;;;5107346;28;20209;-75
2021/04/16 14:16:44;;;;;;;25.73;6.07;;;;;;;;;;5107785;28;20178;-75
2021/04/16 14:19:54;;;;;;;5.80;5.20;;;;;;;;;;5107758;28;20178;-75
2021/04/16 14:22:59;;;;;;;4.33;3.93;;;;;;;;;;5108299;28;20178;-75
2021/04/16 14:26:04;;;;;;;5.10;4.53;;;;;;;;;;5107327;28;20206;-75
2021/04/16 14:29:08;;;;;;;5.03;4.57;;;;;;;;;;5106563;28;20178;-75
2021/04/16 14:32:15;;;;;;;15.80;4.93;;;;;;;;;;5107426;28;20178;-75
2021/04/16 14:35:22;;;;;;;4.63;4.10;;;;;;;;;;5107253;28;20217;-74
2021/04/16 14:38:31;;;;;;;16.23;4.20;;;;;;;;;;5106876;28;20194;-75
2021/04/16 14:41:37;;;;;;;6.17;4.20;;;;;;;;;;5107137;28;20545;-75
2021/04/16 14:44:42;;;;;;;4.00;3.63;;;;;;;;;;5107190;28;20214;-74
2021/04/16 14:47:46;;;;;;;4.27;3.87;;;;;;;;;;5107359;28;20167;-75
2021/04/16 14:50:54;;;;;;;4.20;3.80;;;;;;;;;;5107087;28;20182;-75
2021/04/16 14:54:10;;;;;;;3.90;3.50;;;;;;;;;;5107028;28;20226;-75
2021/04/16 14:57:24;;;;;;;4.57;4.10;;;;;;;;;;5106964;28;20210;-75
2021/04/16 15:00:31;;;;;;;6.77;5.03;;;;;;;;;;5106567;28;20711;-75
2021/04/16 15:03:35;;;;;;;4.53;4.07;;;;;;;;;;5106834;28;20174;-75
2021/04/16 15:06:39;;;;;;;4.33;3.93;;;;;;;;;;5106683;28;20234;-75
2021/04/16 15:10:07;;;;;;;12.87;4.43;;;;;;;;;;5106906;28;20182;-75
2021/04/16 15:13:19;;;;;;;35.77;5.17;;;;;;;;;;5106606;28;20183;-75
2021/04/16 15:16:24;;;;;;;5.90;4.10;;;;;;;;;;5106505;28;20190;-75
2021/04/16 15:19:30;;;;;;;5.77;4.23;;;;;;;;;;5093075;28;20183;-74
2021/04/16 15:22:34;;;;;;;6.57;5.77;;;;;;;;;;5093045;28;20186;-75
2021/04/16 15:25:47;;;;;;;7.70;5.00;;;;;;;;;;5092416;28;20210;-75
2021/04/16 15:29:06;;;;;;;5.20;4.27;;;;;;;;;;5092716;28;20179;-75
2021/04/16 15:32:13;;;;;;;7.17;4.83;;;;;;;;;;5092590;28;20175;-75
2021/04/16 15:48:51;;;;;;;4.20;3.80;;;;;;;;;;5091960;28;20174;-75
2021/04/16 15:51:56;;;;;;;5.07;3.20;;;;;;;;;;5092118;28;20758;-75
2021/04/16 15:55:00;;;;;;;4.07;3.67;;;;;;;;;;5092246;28;20215;-75
2021/04/16 15:58:05;;;;;;;4.70;3.67;;;;;;;;;;5091216;28;20194;-75
2021/04/16 16:01:14;;;;;;;4.87;3.93;;;;;;;;;;5090948;28;20549;-75
2021/04/16 16:04:19;;;;;;;4.30;3.90;;;;;;;;;;5091940;28;20218;-75
2021/04/16 16:07:23;;;;;;;4.30;3.70;;;;;;;;;;5091955;28;20565;-75
2021/04/16 16:10:28;;;;;;;7.30;3.50;;;;;;;;;;5091888;28;20179;-75
2021/04/16 16:13:37;;;;;;;4.37;3.97;;;;;;;;;;5091595;28;20179;-75
2021/04/16 16:16:43;;;;;;;4.53;4.00;;;;;;;;;;5091125;28;20183;-75
2021/04/16 16:19:48;;;;;;;9.37;4.23;;;;;;;;;;5091880;28;20178;-75
2021/04/16 16:22:52;;;;;;;5.57;4.10;;;;;;;;;;5091661;28;20183;-75
2021/04/16 16:25:56;;;;;;;4.23;3.80;;;;;;;;;;5091049;28;20183;-75
2021/04/16 16:29:05;;;;;;;4.50;4.10;;;;;;;;;;5090658;28;20183;-75
2021/04/16 16:32:15;;;;;;;5.70;3.90;;;;;;;;;;5091515;28;20179;-75
2021/04/16 16:35:26;;;;;;;4.30;3.90;;;;;;;;;;5091412;28;20222;-75
2021/04/16 16:38:31;;;;;;;4.20;3.70;;;;;;;;;;5090906;28;20630;-74
2021/04/16 16:41:37;;;;;;;4.40;3.80;;;;;;;;;;5091217;28;20186;-74
2021/04/16 16:44:42;;;;;;;6.17;4.53;;;;;;;;;;5091161;28;20210;-74
2021/04/16 16:47:50;;;;;;;5.90;5.30;;;;;;;;;;5091214;28;20210;-74
2021/04/16 16:50:54;;;;;;;5.20;4.03;;;;;;;;;;5091491;28;20199;-74
2021/04/16 16:53:30;;;;;;;5.53;3.97;;;;;;;;;;5087612;28;20729;-75
2021/04/16 16:56:10;;;;;;;3.90;3.50;;;;;;;;;;5087418;27;21173;-75
2021/04/16 16:58:47;;;;;;;19.43;4.50;;;;;;;;;;5108066;27;20783;-79
2021/04/16 17:01:27;;;;;;;7.90;3.90;;;;;;;;;;5087621;28;21488;-75
2021/04/16 17:04:04;;;;;;;4.80;3.70;;;;;;;;;;5087590;28;20749;-75
2021/04/16 17:06:41;;;;;;;7.93;5.60;;;;;;;;;;5087472;27;20783;-75
2021/04/16 17:09:18;;;;;;;5.00;3.60;;;;;;;;;;5067465;28;20735;-75
2021/04/16 17:11:56;;;;;;;7.00;5.60;;;;;;;;;;5108277;27;20781;-75
2021/04/16 17:14:37;;;;;;;5.10;4.60;;;;;;;;;;5087431;27;20803;-75
2021/04/16 17:17:14;;;;;;;3.83;3.37;;;;;;;;;;5087962;27;20785;-75
2021/04/16 17:19:51;;;;;;;4.13;3.73;;;;;;;;;;5107960;27;20744;-75
2021/04/16 17:22:28;;;;;;;11.60;8.80;;;;;;;;;;5107830;27;20735;-75
2021/04/16 17:25:05;;;;;;;5.87;4.27;;;;;;;;;;5107474;27;20802;-75
2021/04/16 17:27:46;;;;;;;6.27;4.50;;;;;;;;;;5067541;28;20735;-75
2021/04/16 17:30:36;;;;;;;10.97;7.70;;;;;;;;;;5108153;27;20739;-76
2021/04/16 17:33:16;;;;;;;6.97;3.70;;;;;;;;;;5097585;27;21154;-75
2021/04/16 17:35:53;;;;;;;4.27;3.50;;;;;;;;;;5088416;27;20800;-76
2021/04/16 17:38:30;;;;;;;4.03;3.60;;;;;;;;;;5108019;27;21190;-75
2021/04/16 17:41:06;;;;;;;4.67;3.63;;;;;;;;;;5108699;27;20770;-75
2021/04/16 17:43:49;;;;;;;5.63;3.70;;;;;;;;;;5108890;27;20790;-76
2021/04/16 17:46:26;;;;;;;4.43;3.77;;;;;;;;;;5068758;28;20786;-76
2021/04/16 17:49:02;;;;;;;8.27;4.40;;;;;;;;;;5071252;28;21610;-76
2021/04/16 17:51:42;;;;;;;6.13;3.70;;;;;;;;;;5088359;28;20812;-76
2021/04/16 17:54:20;;;;;;;5.10;3.60;;;;;;;;;;5088519;27;20774;-76
2021/04/16 17:56:58;;;;;;;5.27;3.60;;;;;;;;;;5068383;28;21343;-75
2021/04/16 17:59:36;;;;;;;4.70;2.97;;;;;;;;;;5107819;27;20854;-75
2021/04/16 18:02:12;;;;;;;3.40;3.10;;;;;;;;;;5107406;27;20740;-75
2021/04/16 18:04:50;;;;;;;4.73;3.73;;;;;;;;;;5087415;28;21203;-75
2021/04/16 18:07:34;;;;;;;5.13;3.57;;;;;;;;;;5128288;27;20728;-75
2021/04/16 18:10:15;;;;;;;4.43;3.43;;;;;;;;;;5067496;28;21215;-75
2021/04/16 18:12:52;;;;;;;4.07;3.57;;;;;;;;;;5067284;28;20797;-76
2021/04/16 18:15:29;;;;;;;5.73;3.43;;;;;;;;;;5108376;27;20821;-76
2021/04/16 18:18:07;;;;;;;5.47;3.17;;;;;;;;;;5149284;27;20748;-76
2021/04/16 18:20:43;;;;;;;6.17;4.00;;;;;;;;;;5149244;27;20718;-75
2021/04/16 18:23:25;;;;;;;4.67;3.53;;;;;;;;;;5067501;28;20783;-76
2021/04/16 18:26:05;;;;;;;5.73;4.03;;;;;;;;;;5087426;27;21168;-76
2021/04/16 18:28:42;;;;;;;5.10;3.77;;;;;;;;;;5087477;28;21347;-76
2021/04/16 18:31:19;;;;;;;10.20;4.23;;;;;;;;;;5107970;27;20728;-75
2021/04/16 18:33:56;;;;;;;15.27;6.90;;;;;;;;;;5108011;27;20753;-75
2021/04/16 18:36:36;;;;;;;7.83;5.17;;;;;;;;;;5087430;27;20730;-76
2021/04/16 18:39:22;;;;;;;10.53;6.20;;;;;;;;;;5087907;28;20791;-76
2021/04/16 18:41:59;;;;;;;72.13;27.43;;;;;;;;;;5120506;27;20783;-76
2021/04/16 18:44:40;;;;;;;93.00;39.13;;;;;;;;;;5107962;27;20752;-76
2021/04/16 18:47:16;;;;;;;35.97;17.17;;;;;;;;;;5107818;27;21589;-76
2021/04/16 18:49:53;;;;;;;24.40;12.50;;;;;;;;;;5107398;27;20736;-76
2021/04/16 18:52:37;;;;;;;9.27;6.40;;;;;;;;;;5067523;28;21103;-75
2021/04/16 18:55:23;;;;;;;6.27;5.10;;;;;;;;;;5087481;27;21202;-76
2021/04/16 18:58:01;;;;;;;5.33;4.13;;;;;;;;;;5087559;28;20753;-75
2021/04/16 19:00:44;;;;;;;4.23;3.83;;;;;;;;;;5087401;28;20809;-76
2021/04/16 19:03:21;;;;;;;4.20;3.47;;;;;;;;;;5107790;27;20765;-76
2021/04/16 19:05:58;;;;;;;5.00;4.30;;;;;;;;;;5087812;27;20737;-76
2021/04/16 19:08:36;;;;;;;5.43;4.30;;;;;;;;;;5107865;27;20791;-75
2021/04/16 19:11:14;;;;;;;7.60;3.87;;;;;;;;;;5087598;28;20791;-75
2021/04/16 19:13:50;;;;;;;4.90;4.30;;;;;;;;;;5087119;28;21207;-75